Time;durP1;ratioP1;P1;durP2;ratioP2;P2;SDS_P1;SDS_P2;PMS_P1;PMS_P2;Temp;Humidity;BMP_temperature;BMP_pressure;BME280_temperature;BME280_humidity;BME280_pressure;Samples;Min_cycle;Max_cycle;Signal;HPM_P1;HPM_P2
2022/09/02 00:00:24;;;;;;;;;;;13.30;99.90;;;;;;5056088;28;19924;-72
2022/09/02 00:02:56;;;;;;;;;;;13.30;99.90;;;;;;5077954;28;19925;-72
2022/09/02 00:05:22;;;;;;;;;;;13.30;99.90;;;;;;5067347;28;19936;-72
2022/09/02 00:07:54;;;;;;;;;;;13.40;99.90;;;;;;5078067;28;19928;-73
2022/09/02 00:10:25;;;;;;;;;;;13.30;99.90;;;;;;5065188;28;19931;-73
2022/09/02 00:12:52;;;;;;;;;;;13.30;99.90;;;;;;5085204;28;19952;-73
2022/09/02 00:15:24;;;;;;;;;;;13.30;99.90;;;;;;5082018;28;19932;-73
2022/09/02 00:17:51;;;;;;;;;;;13.30;99.90;;;;;;5079350;28;20019;-73
2022/09/02 00:20:23;;;;;;;;;;;13.30;99.90;;;;;;5078880;28;20032;-72
2022/09/02 00:22:55;;;;;;;;;;;13.30;99.90;;;;;;5081287;28;19932;-73
2022/09/02 00:25:26;;;;;;;;;;;13.30;99.90;;;;;;5084493;28;19963;-73
2022/09/02 00:27:58;;;;;;;;;;;13.30;99.90;;;;;;5086421;28;20278;-72
2022/09/02 00:30:25;;;;;;;;;;;13.30;99.90;;;;;;5068268;28;19930;-73
2022/09/02 00:32:57;;;;;;;;;;;13.30;99.90;;;;;;5076387;28;20401;-73
2022/09/02 00:35:24;;;;;;;;;;;13.30;99.90;;;;;;5078961;28;19928;-73
2022/09/02 00:37:56;;;;;;;;;;;13.30;99.90;;;;;;5080875;28;19924;-73
2022/09/02 00:40:28;;;;;;;;;;;13.20;99.90;;;;;;5082815;28;19925;-73
2022/09/02 00:42:59;;;;;;;;;;;13.10;99.90;;;;;;5061265;28;19967;-73
2022/09/02 00:45:31;;;;;;;;;;;13.00;99.90;;;;;;5059336;28;19928;-72
2022/09/02 00:48:04;;;;;;;;;;;12.90;99.90;;;;;;5071688;28;19938;-73
2022/09/02 00:50:35;;;;;;;;;;;12.90;99.90;;;;;;5067647;28;20382;-72
2022/09/02 00:53:11;;;;;;;;;;;12.80;99.90;;;;;;5085094;28;19924;-73
2022/09/02 00:55:45;;;;;;;;;;;12.80;99.90;;;;;;5081165;28;19935;-73
2022/09/02 00:58:25;;;;;;;;;;;12.80;99.90;;;;;;5080437;28;20409;-73
2022/09/02 01:00:58;;;;;;;;;;;12.80;99.90;;;;;;5077667;28;19925;-73
2022/09/02 01:03:30;;;;;;;;;;;12.80;99.90;;;;;;5080034;28;19947;-72
2022/09/02 01:06:02;;;;;;;;;;;12.80;99.90;;;;;;5075934;28;19924;-73
2022/09/02 01:08:35;;;;;;;;;;;12.80;99.90;;;;;;5061919;28;19935;-73
2022/09/02 01:11:07;;;;;;;;;;;12.80;99.90;;;;;;5077601;28;19935;-73
2022/09/02 01:13:40;;;;;;;;;;;12.80;99.90;;;;;;5058728;28;20298;-73
2022/09/02 01:16:17;;;;;;;;;;;12.70;99.90;;;;;;5081185;28;19928;-72
2022/09/02 01:18:51;;;;;;;;;;;12.70;99.90;;;;;;5094778;28;19925;-72
2022/09/02 01:21:18;;;;;;;;;;;12.70;99.90;;;;;;5080137;28;20385;-72
2022/09/02 01:23:50;;;;;;;;;;;12.60;99.90;;;;;;5075218;28;20429;-71
2022/09/02 01:26:22;;;;;;;;;;;12.50;99.90;;;;;;5073952;28;19929;-73
2022/09/02 01:28:53;;;;;;;;;;;12.50;99.90;;;;;;5074743;28;19950;-72
2022/09/02 01:31:25;;;;;;;;;;;12.50;99.90;;;;;;5073962;28;19935;-73
2022/09/02 01:33:58;;;;;;;;;;;12.40;99.90;;;;;;5078718;28;19925;-73
2022/09/02 01:36:29;;;;;;;;;;;12.40;99.90;;;;;;5077739;28;19924;-73
2022/09/02 01:39:01;;;;;;;;;;;12.40;99.90;;;;;;5078487;28;19931;-72
2022/09/02 01:41:28;;;;;;;;;;;12.40;99.90;;;;;;5083698;28;19928;-72
2022/09/02 01:44:00;;;;;;;;;;;12.40;99.90;;;;;;5072551;28;19973;-72
2022/09/02 01:46:32;;;;;;;;;;;12.40;99.90;;;;;;5073910;28;20302;-72
2022/09/02 01:49:04;;;;;;;;;;;12.30;99.90;;;;;;5072839;28;20452;-72
2022/09/02 01:51:37;;;;;;;;;;;12.30;99.90;;;;;;5078949;28;19930;-73
2022/09/02 01:54:10;;;;;;;;;;;12.30;99.90;;;;;;5071891;28;19960;-73
2022/09/02 01:56:41;;;;;;;;;;;12.20;99.90;;;;;;5095338;28;19996;-72
2022/09/02 01:59:16;;;;;;;;;;;12.20;99.90;;;;;;5074709;28;19955;-72
2022/09/02 02:01:48;;;;;;;;;;;12.20;99.90;;;;;;5068271;28;20310;-73
2022/09/02 02:04:21;;;;;;;;;;;12.20;99.90;;;;;;5075683;28;19928;-73
2022/09/02 02:06:55;;;;;;;;;;;12.20;99.90;;;;;;5078821;28;20052;-73
2022/09/02 02:09:22;;;;;;;;;;;12.20;99.90;;;;;;5063824;28;20338;-73
2022/09/02 02:11:54;;;;;;;;;;;12.20;99.90;;;;;;5080613;28;19951;-72
2022/09/02 02:14:20;;;;;;;;;;;12.20;99.90;;;;;;5079818;28;19970;-72
2022/09/02 02:16:52;;;;;;;;;;;12.20;99.90;;;;;;5081391;28;20023;-72
2022/09/02 02:19:24;;;;;;;;;;;12.20;99.90;;;;;;5081989;28;19928;-73
2022/09/02 02:21:50;;;;;;;;;;;12.20;99.90;;;;;;5082235;28;20018;-72
2022/09/02 02:24:22;;;;;;;;;;;12.20;99.90;;;;;;5066877;28;19935;-73
2022/09/02 02:26:54;;;;;;;;;;;12.20;99.90;;;;;;5073523;28;19928;-73
2022/09/02 02:29:26;;;;;;;;;;;12.20;99.90;;;;;;5081310;28;19928;-73
2022/09/02 02:31:58;;;;;;;;;;;12.10;99.90;;;;;;5086504;28;20411;-72
2022/09/02 02:34:31;;;;;;;;;;;12.20;99.90;;;;;;5063115;28;20306;-73
2022/09/02 02:36:58;;;;;;;;;;;12.20;99.90;;;;;;5084114;28;19928;-71
2022/09/02 02:39:29;;;;;;;;;;;12.20;99.90;;;;;;5064195;28;19928;-73
2022/09/02 02:42:01;;;;;;;;;;;12.20;99.90;;;;;;5084300;28;19979;-73
2022/09/02 02:44:28;;;;;;;;;;;12.10;99.90;;;;;;5070769;28;19929;-72
2022/09/02 02:46:55;;;;;;;;;;;12.10;99.90;;;;;;5083496;28;19935;-72
2022/09/02 02:49:26;;;;;;;;;;;12.10;99.90;;;;;;5074184;28;19971;-72
2022/09/02 02:51:59;;;;;;;;;;;12.00;99.90;;;;;;5066458;28;19924;-73
2022/09/02 02:54:32;;;;;;;;;;;12.00;99.90;;;;;;5065121;28;19947;-73
2022/09/02 02:57:05;;;;;;;;;;;12.00;99.90;;;;;;5083332;28;19928;-72
2022/09/02 02:59:36;;;;;;;;;;;11.90;99.90;;;;;;5085074;28;19986;-73
2022/09/02 03:02:11;;;;;;;;;;;11.90;99.90;;;;;;5082294;28;20367;-73
2022/09/02 03:04:42;;;;;;;;;;;11.90;99.90;;;;;;5086511;28;19930;-72
2022/09/02 03:07:14;;;;;;;;;;;11.80;99.90;;;;;;5084831;28;19939;-72
2022/09/02 03:09:41;;;;;;;;;;;11.80;99.90;;;;;;5086543;28;19950;-72
2022/09/02 03:12:09;;;;;;;;;;;11.80;99.90;;;;;;5065361;28;20294;-73
2022/09/02 03:14:40;;;;;;;;;;;11.70;99.90;;;;;;5076286;28;19959;-72
2022/09/02 03:17:13;;;;;;;;;;;11.70;99.90;;;;;;5081792;28;19931;-73
2022/09/02 03:19:46;;;;;;;;;;;11.70;99.90;;;;;;5070034;28;20358;-73
2022/09/02 03:22:13;;;;;;;;;;;11.70;99.90;;;;;;5084057;28;19931;-72
2022/09/02 03:24:44;;;;;;;;;;;11.60;99.90;;;;;;5086312;28;19929;-73
2022/09/02 03:27:11;;;;;;;;;;;11.60;99.90;;;;;;5078427;28;19924;-73
2022/09/02 03:29:43;;;;;;;;;;;11.60;99.90;;;;;;5081768;28;19924;-73
2022/09/02 03:32:15;;;;;;;;;;;11.60;99.90;;;;;;5063513;28;19968;-73
2022/09/02 03:34:47;;;;;;;;;;;11.50;99.90;;;;;;5065458;28;20011;-73
2022/09/02 03:37:19;;;;;;;;;;;11.60;99.90;;;;;;5082770;28;19924;-73
2022/09/02 03:39:46;;;;;;;;;;;11.50;99.90;;;;;;5099746;28;19925;-73
2022/09/02 03:42:17;;;;;;;;;;;11.50;99.90;;;;;;5079397;28;19928;-72
2022/09/02 03:44:50;;;;;;;;;;;11.50;99.90;;;;;;5058667;28;19929;-73
2022/09/02 03:47:22;;;;;;;;;;;11.50;99.90;;;;;;5082082;28;19977;-72
2022/09/02 03:49:54;;;;;;;;;;;11.50;99.90;;;;;;5077059;28;19932;-73
2022/09/02 03:52:26;;;;;;;;;;;11.50;99.90;;;;;;5081710;28;19925;-73
2022/09/02 03:54:53;;;;;;;;;;;11.50;99.90;;;;;;5081326;28;19952;-72
2022/09/02 03:57:26;;;;;;;;;;;11.50;99.90;;;;;;5078900;28;19925;-73
2022/09/02 03:59:53;;;;;;;;;;;11.40;99.90;;;;;;5085017;28;19932;-73
2022/09/02 04:02:25;;;;;;;;;;;11.40;99.90;;;;;;5082128;28;19939;-72
2022/09/02 04:04:57;;;;;;;;;;;11.40;99.90;;;;;;5070942;28;19985;-72
2022/09/02 04:07:23;;;;;;;;;;;11.30;99.90;;;;;;5081908;28;19950;-73
2022/09/02 04:09:55;;;;;;;;;;;11.30;99.90;;;;;;5077007;28;19931;-73
2022/09/02 04:12:28;;;;;;;;;;;11.30;99.90;;;;;;5068974;28;20435;-73
2022/09/02 04:15:00;;;;;;;;;;;11.30;99.90;;;;;;5060154;28;19925;-72
2022/09/02 04:21:16;;;;;;;;;;;11.20;99.90;;;;;;5081810;28;20282;-73
2022/09/02 04:23:43;;;;;;;;;;;11.20;99.90;;;;;;5084801;28;20505;-73
2022/09/02 04:26:15;;;;;;;;;;;11.10;99.90;;;;;;5073569;28;20424;-72
2022/09/02 04:28:52;;;;;;;;;;;11.20;99.90;;;;;;5075198;28;19932;-73
2022/09/02 04:31:28;;;;;;;;;;;11.10;99.90;;;;;;5074072;28;19981;-73
2022/09/02 04:34:01;;;;;;;;;;;11.10;99.90;;;;;;5080270;28;19928;-73
2022/09/02 04:36:33;;;;;;;;;;;11.10;99.90;;;;;;5063599;28;20430;-72
2022/09/02 04:39:08;;;;;;;;;;;11.00;99.90;;;;;;5082963;28;19970;-72
2022/09/02 04:41:41;;;;;;;;;;;11.00;99.90;;;;;;5054979;28;19947;-73
2022/09/02 04:44:09;;;;;;;;;;;11.10;99.90;;;;;;5067322;28;20014;-72
2022/09/02 04:46:45;;;;;;;;;;;11.00;99.90;;;;;;5075876;28;20028;-73
2022/09/02 04:49:19;;;;;;;;;;;11.10;99.90;;;;;;5083495;28;20391;-72
2022/09/02 04:51:53;;;;;;;;;;;11.10;99.90;;;;;;5082133;28;19930;-73
2022/09/02 04:54:26;;;;;;;;;;;11.10;99.90;;;;;;5062152;28;19951;-72
2022/09/02 04:57:00;;;;;;;;;;;11.10;99.90;;;;;;5060096;28;19928;-73
2022/09/02 04:59:35;;;;;;;;;;;11.10;99.90;;;;;;5082353;28;19928;-72
2022/09/02 05:02:09;;;;;;;;;;;11.10;99.90;;;;;;5071865;28;19929;-72
2022/09/02 05:04:42;;;;;;;;;;;11.10;99.90;;;;;;5085515;28;19932;-72
2022/09/02 05:07:20;;;;;;;;;;;11.10;99.90;;;;;;5066687;28;19976;-73
2022/09/02 05:10:02;;;;;;;;;;;11.10;99.90;;;;;;5073428;28;19931;-72
2022/09/02 05:12:39;;;;;;;;;;;11.10;99.90;;;;;;5079614;28;19924;-72
2022/09/02 05:15:11;;;;;;;;;;;11.10;99.90;;;;;;5058352;28;19971;-72
2022/09/02 05:17:45;;;;;;;;;;;11.10;99.90;;;;;;5077020;28;19954;-72
2022/09/02 05:20:17;;;;;;;;;;;11.10;99.90;;;;;;5079203;28;19954;-72
2022/09/02 05:22:49;;;;;;;;;;;11.10;99.90;;;;;;5101054;28;20025;-71
2022/09/02 05:25:21;;;;;;;;;;;11.20;99.90;;;;;;5072924;28;19929;-72
2022/09/02 05:27:53;;;;;;;;;;;11.20;99.90;;;;;;5071268;28;19932;-72
2022/09/02 05:30:25;;;;;;;;;;;11.20;99.90;;;;;;5074259;28;19924;-72
2022/09/02 05:32:56;;;;;;;;;;;11.20;99.90;;;;;;5077359;28;20011;-72
2022/09/02 05:35:28;;;;;;;;;;;11.20;99.90;;;;;;5079711;28;19924;-72
2022/09/02 05:37:55;;;;;;;;;;;11.20;99.90;;;;;;5062903;28;20065;-72
2022/09/02 05:40:28;;;;;;;;;;;11.20;99.90;;;;;;5059087;28;20383;-72
2022/09/02 05:42:56;;;;;;;;;;;11.30;99.90;;;;;;5086426;28;20340;-72
2022/09/02 05:45:28;;;;;;;;;;;11.30;99.90;;;;;;5049694;28;19924;-72
2022/09/02 05:47:55;;;;;;;;;;;11.30;99.90;;;;;;5076626;28;19935;-72
2022/09/02 05:50:27;;;;;;;;;;;11.40;99.90;;;;;;5089717;28;20400;-72
2022/09/02 05:52:58;;;;;;;;;;;11.40;99.90;;;;;;5072375;28;19968;-72
2022/09/02 05:55:30;;;;;;;;;;;11.40;99.90;;;;;;5067887;28;19979;-72
2022/09/02 05:58:02;;;;;;;;;;;11.50;99.90;;;;;;5074935;28;19951;-72
2022/09/02 06:00:34;;;;;;;;;;;11.50;99.90;;;;;;5083993;28;20340;-72
2022/09/02 06:03:06;;;;;;;;;;;11.50;99.90;;;;;;5071007;28;19931;-72
2022/09/02 06:05:39;;;;;;;;;;;11.60;99.90;;;;;;5074564;28;19967;-72
2022/09/02 06:08:19;;;;;;;;;;;11.70;99.90;;;;;;5075383;28;19928;-72
2022/09/02 06:10:50;;;;;;;;;;;11.80;99.90;;;;;;5077939;28;19928;-72
2022/09/02 06:13:25;;;;;;;;;;;11.80;99.90;;;;;;5062814;28;19928;-72
2022/09/02 06:15:53;;;;;;;;;;;11.90;99.90;;;;;;5083979;28;20382;-72
2022/09/02 06:18:24;;;;;;;;;;;12.00;99.90;;;;;;5082754;28;19928;-72
2022/09/02 06:20:56;;;;;;;;;;;12.00;99.90;;;;;;5071360;28;19964;-72
2022/09/02 06:23:28;;;;;;;;;;;12.10;99.90;;;;;;5077112;28;19928;-72
2022/09/02 06:26:01;;;;;;;;;;;12.20;99.90;;;;;;5055198;28;19931;-72
2022/09/02 06:28:33;;;;;;;;;;;12.30;99.90;;;;;;5059422;28;20446;-72
2022/09/02 06:31:09;;;;;;;;;;;12.30;99.90;;;;;;5076935;28;19931;-72
2022/09/02 06:33:42;;;;;;;;;;;12.40;99.90;;;;;;5085342;28;20290;-72
2022/09/02 06:36:16;;;;;;;;;;;12.50;99.90;;;;;;5081461;28;19932;-72
2022/09/02 06:38:51;;;;;;;;;;;12.50;99.90;;;;;;5069785;28;19989;-72
2022/09/02 06:41:26;;;;;;;;;;;12.60;99.90;;;;;;5075460;28;19944;-72
2022/09/02 06:44:02;;;;;;;;;;;12.70;99.90;;;;;;5089476;28;19930;-72
2022/09/02 06:46:32;;;;;;;;;;;12.80;99.90;;;;;;5076030;28;19970;-71
2022/09/02 06:49:06;;;;;;;;;;;12.90;99.90;;;;;;5074607;28;19936;-72
2022/09/02 06:51:40;;;;;;;;;;;12.90;99.90;;;;;;5088544;28;19924;-72
2022/09/02 06:54:14;;;;;;;;;;;13.00;99.90;;;;;;5057993;28;19925;-72
2022/09/02 06:56:49;;;;;;;;;;;13.10;99.90;;;;;;5082736;28;19933;-72
2022/09/02 06:59:24;;;;;;;;;;;13.20;99.90;;;;;;5081947;28;19987;-72
2022/09/02 07:01:57;;;;;;;;;;;13.30;99.90;;;;;;5056651;28;20272;-72
2022/09/02 07:07:20;;;;;;;;;;;13.40;99.90;;;;;;5073754;28;19932;-72
2022/09/02 07:09:59;;;;;;;;;;;13.50;99.90;;;;;;5076435;28;20019;-72
2022/09/02 07:12:35;;;;;;;;;;;13.60;99.90;;;;;;5062451;28;19930;-72
2022/09/02 07:15:12;;;;;;;;;;;13.70;99.90;;;;;;5076939;28;19925;-72
2022/09/02 07:17:40;;;;;;;;;;;13.80;99.90;;;;;;5083771;28;19966;-72
2022/09/02 07:20:19;;;;;;;;;;;13.90;99.90;;;;;;5084250;28;20298;-72
2022/09/02 07:22:51;;;;;;;;;;;14.00;99.90;;;;;;5057370;28;20441;-72
2022/09/02 07:25:19;;;;;;;;;;;14.00;99.90;;;;;;5057051;28;19974;-72
2022/09/02 07:27:51;;;;;;;;;;;14.10;99.90;;;;;;5069507;28;19925;-72
2022/09/02 07:30:24;;;;;;;;;;;14.20;99.90;;;;;;5076418;28;19929;-72
2022/09/02 07:33:13;;;;;;;;;;;14.30;99.90;;;;;;5063601;28;20015;-72
2022/09/02 07:35:45;;;;;;;;;;;14.40;99.90;;;;;;5080208;28;19977;-72
2022/09/02 07:38:19;;;;;;;;;;;14.50;99.90;;;;;;5078960;28;19993;-72
2022/09/02 07:40:51;;;;;;;;;;;14.60;99.90;;;;;;5096196;28;20002;-72
2022/09/02 07:43:18;;;;;;;;;;;14.70;99.90;;;;;;5075073;28;19928;-72
2022/09/02 07:45:52;;;;;;;;;;;14.80;99.90;;;;;;5072513;28;19931;-72
2022/09/02 07:48:24;;;;;;;;;;;14.90;99.90;;;;;;5057740;28;20410;-72
2022/09/02 07:50:56;;;;;;;;;;;15.00;99.90;;;;;;5084959;28;19986;-72
2022/09/02 07:53:30;;;;;;;;;;;15.10;99.90;;;;;;5085469;28;19924;-72
2022/09/02 07:56:02;;;;;;;;;;;15.20;99.90;;;;;;5055588;28;19925;-72
2022/09/02 07:58:34;;;;;;;;;;;15.30;99.90;;;;;;5083619;28;19924;-72
2022/09/02 08:01:06;;;;;;;;;;;15.50;99.90;;;;;;5086472;28;19937;-72
2022/09/02 08:03:41;;;;;;;;;;;15.50;99.90;;;;;;5069460;28;19924;-72
2022/09/02 08:06:09;;;;;;;;;;;15.70;99.90;;;;;;5055618;28;19936;-72
2022/09/02 08:08:41;;;;;;;;;;;15.80;99.90;;;;;;5089904;28;19924;-72
2022/09/02 08:11:13;;;;;;;;;;;15.90;99.90;;;;;;5087987;28;19924;-72
2022/09/02 08:13:45;;;;;;;;;;;16.00;99.90;;;;;;5082744;28;19951;-72
2022/09/02 08:16:17;;;;;;;;;;;16.20;99.90;;;;;;5082130;28;19936;-72
2022/09/02 08:18:48;;;;;;;;;;;16.30;99.90;;;;;;5078418;28;19979;-72
2022/09/02 08:21:20;;;;;;;;;;;16.40;99.90;;;;;;5087006;28;19931;-73
2022/09/02 08:23:52;;;;;;;;;;;16.50;99.90;;;;;;5090070;28;19928;-72
2022/09/02 08:26:25;;;;;;;;;;;16.60;99.90;;;;;;5091704;28;19924;-72
2022/09/02 08:28:57;;;;;;;;;;;16.70;99.90;;;;;;5089082;28;19932;-72
2022/09/02 08:31:30;;;;;;;;;;;16.80;99.90;;;;;;5087363;28;19934;-72
2022/09/02 08:34:02;;;;;;;;;;;17.00;99.90;;;;;;5084570;28;20395;-72
2022/09/02 08:36:29;;;;;;;;;;;17.10;99.90;;;;;;5080485;28;19924;-72
2022/09/02 08:39:01;;;;;;;;;;;17.10;99.90;;;;;;5082264;28;19924;-72
2022/09/02 08:41:39;;;;;;;;;;;17.30;99.90;;;;;;5087898;28;19924;-72
2022/09/02 08:44:14;;;;;;;;;;;17.40;99.90;;;;;;5070030;28;19982;-72
2022/09/02 08:46:47;;;;;;;;;;;17.50;99.90;;;;;;5082486;28;19925;-72
2022/09/02 08:49:30;;;;;;;;;;;17.60;99.90;;;;;;5083949;28;19931;-72
2022/09/02 08:52:03;;;;;;;;;;;17.70;99.90;;;;;;5090454;28;19931;-72
2022/09/02 08:54:40;;;;;;;;;;;17.90;99.90;;;;;;5080312;28;19924;-72
2022/09/02 08:57:12;;;;;;;;;;;18.00;99.90;;;;;;5064501;28;19932;-72
2022/09/02 08:59:39;;;;;;;;;;;18.10;99.90;;;;;;5077299;28;19929;-72
2022/09/02 09:02:22;;;;;;;;;;;18.20;99.90;;;;;;5075665;28;19974;-72
2022/09/02 09:05:06;;;;;;;;;;;18.30;99.90;;;;;;5049574;28;20426;-72
2022/09/02 09:08:00;;;;;;;;;;;18.20;99.90;;;;;;5072002;28;19929;-72
2022/09/02 09:10:32;;;;;;;;;;;18.30;99.90;;;;;;5086982;28;19924;-72
2022/09/02 09:13:22;;;;;;;;;;;18.40;99.90;;;;;;5084506;28;20334;-72
2022/09/02 09:16:09;;;;;;;;;;;18.60;99.90;;;;;;5081719;28;19932;-72
2022/09/02 09:18:36;;;;;;;;;;;18.70;99.90;;;;;;5072297;28;19925;-72
2022/09/02 09:21:07;;;;;;;;;;;18.90;99.90;;;;;;5085470;28;19924;-72
2022/09/02 09:23:39;;;;;;;;;;;18.90;99.90;;;;;;5088851;28;19928;-72
2022/09/02 09:26:10;;;;;;;;;;;19.00;99.90;;;;;;5089941;28;20014;-72
2022/09/02 09:28:43;;;;;;;;;;;19.10;99.90;;;;;;5068988;28;20364;-72
2022/09/02 09:31:14;;;;;;;;;;;19.20;99.90;;;;;;5074639;28;20300;-72
2022/09/02 09:33:59;;;;;;;;;;;19.30;99.90;;;;;;5079764;28;19928;-72
2022/09/02 09:36:40;;;;;;;;;;;19.30;99.90;;;;;;5055008;28;19924;-72
2022/09/02 09:39:17;;;;;;;;;;;19.40;99.90;;;;;;5074023;28;19925;-71
2022/09/02 09:41:49;;;;;;;;;;;19.50;99.90;;;;;;5085206;28;19924;-72
2022/09/02 09:44:48;;;;;;;;;;;19.50;99.90;;;;;;5089532;28;20306;-72
2022/09/02 09:47:18;;;;;;;;;;;19.60;99.90;;;;;;5088840;28;19934;-72
2022/09/02 09:50:08;;;;;;;;;;;19.60;99.90;;;;;;5071115;28;20392;-72
2022/09/02 09:52:34;;;;;;;;;;;19.80;99.90;;;;;;5059976;28;19924;-72
2022/09/02 09:55:06;;;;;;;;;;;19.90;99.90;;;;;;5079616;28;20033;-72
2022/09/02 09:57:39;;;;;;;;;;;19.90;99.90;;;;;;5080122;28;19934;-72
2022/09/02 10:00:20;;;;;;;;;;;20.10;99.90;;;;;;5062950;28;19925;-72
2022/09/02 10:02:54;;;;;;;;;;;20.10;99.90;;;;;;5051174;28;19932;-72
2022/09/02 10:05:25;;;;;;;;;;;20.20;99.90;;;;;;5072006;28;20375;-72
2022/09/02 10:07:59;;;;;;;;;;;20.30;99.90;;;;;;5071894;28;19931;-72
2022/09/02 10:10:26;;;;;;;;;;;20.50;99.90;;;;;;5074145;28;19925;-72
2022/09/02 10:13:37;;;;;;;;;;;20.50;99.90;;;;;;5068319;28;19929;-72
2022/09/02 10:16:20;;;;;;;;;;;20.50;99.90;;;;;;5041068;28;19944;-72
2022/09/02 10:18:53;;;;;;;;;;;20.50;99.90;;;;;;5056042;28;19924;-72
2022/09/02 10:21:34;;;;;;;;;;;20.60;99.90;;;;;;5071710;28;19935;-72
2022/09/02 10:24:12;;;;;;;;;;;20.70;99.90;;;;;;5066688;28;19929;-72
2022/09/02 10:26:48;;;;;;;;;;;20.80;99.90;;;;;;5054810;28;19928;-72
2022/09/02 10:29:34;;;;;;;;;;;20.80;99.90;;;;;;5055231;28;19929;-72
2022/09/02 10:32:19;;;;;;;;;;;20.90;99.90;;;;;;5075595;28;19934;-72
2022/09/02 10:34:50;;;;;;;;;;;21.00;99.90;;;;;;5079055;28;19924;-72
2022/09/02 10:37:23;;;;;;;;;;;21.10;99.90;;;;;;5079542;28;19954;-72
2022/09/02 10:39:55;;;;;;;;;;;21.10;99.90;;;;;;5080276;28;19972;-72
2022/09/02 10:42:34;;;;;;;;;;;21.10;99.90;;;;;;5070867;28;19929;-72
2022/09/02 10:45:25;;;;;;;;;;;21.20;99.90;;;;;;5058218;28;19942;-72
2022/09/02 10:47:56;;;;;;;;;;;21.30;99.90;;;;;;5086780;28;19924;-72
2022/09/02 10:50:39;;;;;;;;;;;21.30;99.90;;;;;;5088736;28;19982;-72
2022/09/02 10:53:36;;;;;;;;;;;21.40;99.90;;;;;;5079237;28;19924;-73
2022/09/02 10:56:28;;;;;;;;;;;21.40;99.90;;;;;;5082961;28;19934;-72
2022/09/02 10:59:21;;;;;;;;;;;21.50;99.90;;;;;;5059566;28;19932;-72
2022/09/02 11:01:55;;;;;;;;;;;21.60;99.90;;;;;;5090016;28;19967;-72
2022/09/02 11:04:36;;;;;;;;;;;21.70;99.90;;;;;;5091200;28;19967;-72
2022/09/02 11:07:11;;;;;;;;;;;21.70;99.90;;;;;;5092064;28;19948;-72
2022/09/02 11:09:53;;;;;;;;;;;21.90;99.90;;;;;;5089668;28;19924;-72
2022/09/02 11:12:33;;;;;;;;;;;21.90;99.90;;;;;;5086641;28;19924;-72
2022/09/02 11:15:15;;;;;;;;;;;22.00;99.90;;;;;;5083778;28;19931;-72
2022/09/02 11:17:55;;;;;;;;;;;22.10;99.90;;;;;;5080209;28;19925;-71
2022/09/02 11:20:33;;;;;;;;;;;22.10;99.90;;;;;;5079707;28;19924;-71
2022/09/02 11:23:07;;;;;;;;;;;22.20;99.90;;;;;;5080082;28;19951;-71
2022/09/02 11:25:43;;;;;;;;;;;22.20;99.90;;;;;;5080592;28;20345;-71
2022/09/02 11:28:22;;;;;;;;;;;22.30;99.90;;;;;;5081325;28;19925;-71
2022/09/02 11:30:55;;;;;;;;;;;22.30;99.90;;;;;;5085677;28;20447;-71
2022/09/02 11:33:29;;;;;;;;;;;22.30;99.90;;;;;;5074706;28;19924;-71
2022/09/02 11:36:01;;;;;;;;;;;22.40;99.90;;;;;;5083488;28;19982;-72
2022/09/02 11:38:32;;;;;;;;;;;22.50;99.90;;;;;;5083925;28;19924;-71
2022/09/02 11:41:13;;;;;;;;;;;22.60;99.90;;;;;;5083122;28;19928;-71
2022/09/02 11:43:48;;;;;;;;;;;22.60;99.90;;;;;;5072372;28;19924;-71
2022/09/02 11:46:35;;;;;;;;;;;22.70;99.90;;;;;;5065207;28;19955;-72
2022/09/02 11:49:12;;;;;;;;;;;22.70;99.90;;;;;;5080936;28;19994;-71
2022/09/02 11:51:50;;;;;;;;;;;22.60;99.60;;;;;;5078181;28;19987;-72
2022/09/02 11:54:23;;;;;;;;;;;22.70;99.80;;;;;;5081544;28;19974;-73
2022/09/02 11:57:00;;;;;;;;;;;22.70;99.90;;;;;;5082232;28;19932;-73
2022/09/02 11:59:50;;;;;;;;;;;22.80;99.90;;;;;;5078754;28;19924;-72
2022/09/02 12:02:34;;;;;;;;;;;22.80;99.90;;;;;;5087868;28;19924;-71
2022/09/02 12:05:28;;;;;;;;;;;22.80;97.80;;;;;;5080814;28;19924;-71
2022/09/02 12:08:05;;;;;;;;;;;22.90;97.50;;;;;;5080566;28;19924;-72
2022/09/02 12:10:43;;;;;;;;;;;23.00;97.80;;;;;;5083952;28;19924;-71
2022/09/02 12:13:39;;;;;;;;;;;23.00;98.00;;;;;;5086496;28;19950;-72
2022/09/02 12:16:11;;;;;;;;;;;23.10;98.10;;;;;;5085163;28;19924;-72
2022/09/02 12:18:43;;;;;;;;;;;23.20;97.70;;;;;;5080020;28;19924;-72
2022/09/02 12:21:16;;;;;;;;;;;23.20;97.50;;;;;;5081603;28;20330;-71
2022/09/02 12:23:47;;;;;;;;;;;23.20;97.80;;;;;;5077028;28;19932;-72
2022/09/02 12:26:25;;;;;;;;;;;23.20;96.80;;;;;;5082805;28;20306;-72
2022/09/02 12:29:10;;;;;;;;;;;23.30;95.70;;;;;;5076444;28;19963;-73
2022/09/02 12:31:43;;;;;;;;;;;23.30;97.10;;;;;;5060797;28;19929;-71
2022/09/02 12:34:24;;;;;;;;;;;23.30;96.60;;;;;;5080610;28;20310;-71
2022/09/02 12:37:00;;;;;;;;;;;23.30;96.50;;;;;;5080321;28;19924;-72
2022/09/02 12:39:31;;;;;;;;;;;23.40;95.20;;;;;;5071487;28;20406;-72
2022/09/02 12:42:06;;;;;;;;;;;23.40;97.10;;;;;;5072280;28;19931;-71
2022/09/02 12:44:44;;;;;;;;;;;23.40;96.20;;;;;;5057242;28;19960;-72
2022/09/02 12:47:18;;;;;;;;;;;23.40;94.60;;;;;;5081783;28;19924;-72
2022/09/02 12:50:05;;;;;;;;;;;23.40;94.80;;;;;;5077073;28;20070;-73
2022/09/02 12:52:39;;;;;;;;;;;23.50;96.00;;;;;;5062629;28;19950;-71
2022/09/02 12:55:28;;;;;;;;;;;23.60;96.00;;;;;;5082517;28;19931;-72
2022/09/02 12:58:13;;;;;;;;;;;23.70;96.20;;;;;;5082882;28;20018;-73
2022/09/02 13:00:51;;;;;;;;;;;23.70;94.60;;;;;;5083814;28;20305;-71
2022/09/02 13:03:25;;;;;;;;;;;23.80;94.80;;;;;;5078585;28;19928;-71
2022/09/02 13:05:57;;;;;;;;;;;23.90;93.50;;;;;;5075228;28;19924;-71
2022/09/02 13:08:34;;;;;;;;;;;23.90;93.30;;;;;;5081583;28;19933;-72
2022/09/02 13:11:25;;;;;;;;;;;23.90;93.30;;;;;;5080328;28;19924;-72
2022/09/02 13:13:59;;;;;;;;;;;24.00;92.90;;;;;;5078031;28;19931;-72
2022/09/02 13:16:49;;;;;;;;;;;23.90;92.30;;;;;;5081852;28;20001;-71
2022/09/02 13:19:39;;;;;;;;;;;23.90;92.70;;;;;;5079036;28;19925;-72
2022/09/02 13:22:32;;;;;;;;;;;24.00;92.70;;;;;;5080345;28;19932;-72
2022/09/02 13:25:06;;;;;;;;;;;24.10;93.00;;;;;;5080009;28;19971;-72
2022/09/02 13:27:46;;;;;;;;;;;24.30;92.10;;;;;;5079409;28;19963;-72
2022/09/02 13:30:18;;;;;;;;;;;24.30;93.00;;;;;;5077709;28;19924;-73
2022/09/02 13:32:58;;;;;;;;;;;24.40;92.50;;;;;;5081126;28;20405;-72
2022/09/02 13:35:30;;;;;;;;;;;24.50;93.30;;;;;;5078795;28;20416;-72
2022/09/02 13:38:02;;;;;;;;;;;24.50;91.30;;;;;;5079690;28;19925;-72
2022/09/02 13:40:35;;;;;;;;;;;24.60;91.60;;;;;;5080176;28;20329;-72
2022/09/02 13:43:03;;;;;;;;;;;24.70;91.00;;;;;;5082952;28;19925;-72
2022/09/02 13:45:35;;;;;;;;;;;24.70;91.10;;;;;;5083247;28;20392;-72
2022/09/02 13:48:17;;;;;;;;;;;24.70;90.60;;;;;;5080093;28;20279;-73
2022/09/02 13:50:48;;;;;;;;;;;24.70;91.00;;;;;;5071889;28;19930;-72
2022/09/02 13:53:26;;;;;;;;;;;24.70;89.80;;;;;;5080139;28;19924;-71
2022/09/02 13:55:58;;;;;;;;;;;24.80;89.00;;;;;;5063282;28;19924;-73
2022/09/02 13:58:28;;;;;;;;;;;24.80;89.40;;;;;;5081070;28;19935;-72
2022/09/02 14:01:17;;;;;;;;;;;24.80;90.10;;;;;;5081457;28;19928;-74
2022/09/02 14:03:50;;;;;;;;;;;24.90;90.50;;;;;;5079293;28;20015;-72
2022/09/02 14:06:24;;;;;;;;;;;25.10;88.10;;;;;;5084775;28;19928;-72
2022/09/02 14:08:58;;;;;;;;;;;25.20;90.00;;;;;;5080505;28;20298;-72
2022/09/02 14:11:36;;;;;;;;;;;25.20;86.80;;;;;;5084217;28;19924;-72
2022/09/02 14:14:13;;;;;;;;;;;25.40;86.70;;;;;;5078476;28;19937;-72
2022/09/02 14:16:44;;;;;;;;;;;25.50;86.30;;;;;;5085600;28;19924;-72
2022/09/02 14:19:16;;;;;;;;;;;25.60;88.40;;;;;;5085111;28;19932;-72
2022/09/02 14:21:57;;;;;;;;;;;25.70;85.80;;;;;;5085491;28;20023;-73
2022/09/02 14:24:35;;;;;;;;;;;25.80;84.60;;;;;;5085295;28;19928;-72
2022/09/02 14:27:15;;;;;;;;;;;25.90;83.10;;;;;;5085692;28;19946;-72
2022/09/02 14:29:51;;;;;;;;;;;26.10;84.90;;;;;;5086221;28;20019;-72
2022/09/02 14:32:24;;;;;;;;;;;26.20;84.30;;;;;;5082760;28;19925;-72
2022/09/02 14:35:10;;;;;;;;;;;26.40;80.70;;;;;;5080839;28;20293;-72
2022/09/02 14:37:56;;;;;;;;;;;26.60;81.90;;;;;;5087596;28;19928;-72
2022/09/02 14:40:32;;;;;;;;;;;26.80;81.90;;;;;;5085685;28;19944;-73
2022/09/02 14:43:09;;;;;;;;;;;27.20;80.20;;;;;;5081607;28;19978;-72
2022/09/02 14:45:47;;;;;;;;;;;27.40;76.70;;;;;;5077849;28;20306;-72
2022/09/02 14:48:23;;;;;;;;;;;27.50;74.60;;;;;;5082542;28;19929;-72
2022/09/02 14:50:59;;;;;;;;;;;27.60;76.10;;;;;;5084205;28;19923;-71
2022/09/02 14:53:32;;;;;;;;;;;27.70;75.10;;;;;;5080266;28;19925;-73
2022/09/02 14:55:59;;;;;;;;;;;27.90;75.80;;;;;;5084804;28;19925;-72
2022/09/02 14:58:30;;;;;;;;;;;28.00;73.10;;;;;;5082420;28;19924;-72
2022/09/02 15:01:03;;;;;;;;;;;28.10;73.50;;;;;;5079932;28;19950;-71
2022/09/02 15:03:36;;;;;;;;;;;28.20;72.20;;;;;;5085577;28;19925;-73